Aérodrome :
LOGIN :

S'inscrire | Disclaimer

   EN    FR    IT 

 










Légende :    VFR   VFR Marginal   IFR   IFR Intensif   IFR Très Intensif
Visi : 
Plafond : 
>= 8 km
>= 3000ft
5 à 8 km
1000 à 3000 ft
1500m à 5 km
500 à 1000 ft
800 à 1500m
200 à 500 ft
< 800m
< 200 ft
Symboles :   Orages  Brouillard  Fortes neiges  Fortes précipitations  Vent > 20 kt
SIGMETs :   Divers  Orages  Givrage  Turbulence  Onde Orograph.  Cendres Volcan.






- Altitude de l'aérodrome : 885 ft
- Code IATA : BAS


LFSB - Bale-Mulhouse

DERNIER METAR :
  • 190500Z 17004KT 140V200 9999 FEW026 BKN030 02/00 Q1016 NOSIG

METARs EXPIRÉS :
  • 190430Z 16005KT 9999 FEW022 BKN028 01/00 Q1016 NOSIG
  • 190400Z 15005KT 9999 FEW022 BKN033 00/M01 Q1016 NOSIG
  • 190330Z 16004KT 9999 BKN022 BKN033 01/00 Q1016 NOSIG
  • 190300Z AUTO 20003KT 9999 SCT020/// BKN025/// BKN033/// 01/M00 Q1016 NOSIG
  • 190230Z AUTO VRB03KT 9999 FEW022/// BKN036/// BKN240/// 01/M00 Q1016 NOSIG

TAF TAF LFSB
Valide du 19 à 00h jusqu'au 20 à 00h UTC


182300Z 1900/1924 18003KT 9999 BKN028
BECMG 1917/1920 32005KT 4000 BR BKN005 BKN025
TEMPO 1918/1924 2000 OVC003
PROB40
TEMPO 1920/1924 -DZ
PROB30
TEMPO 1922/1924 0600 FG VV///
Météo : +33 3 89 90 31 11



MET'MAP, la Météo Aéronautique d'un coup d'oeil ! - Copyright ORBIFLY Décembre 2007 - Disclaimer

ORBIFLY MET'MAP TEAM :

Programmation & Développement : Alexandra Zaïnal
Conception & Développement : Baudouin d'Aumeries
Co-Programmation & Développement : Marc-Olivier Méhu
Soutien technique & logistique : Manuel Goepfert

Contact : metmap@orbifly.com




SOURCES & CREDITS :

   NOAA